sensor_id;sensor_type;location;lat;lon;timestamp;P1;durP1;ratioP1;P2;durP2;ratioP2
20411;SDS011;10365;52.578;8.138;2023-04-29T00:00:35;69.35;;;33.50;;
20411;SDS011;10365;52.578;8.138;2023-04-29T00:03:00;70.07;;;33.75;;
20411;SDS011;10365;52.578;8.138;2023-04-29T00:05:26;67.78;;;33.53;;
20411;SDS011;10365;52.578;8.138;2023-04-29T00:07:51;67.15;;;32.88;;
20411;SDS011;10365;52.578;8.138;2023-04-29T00:10:17;65.10;;;33.53;;
20411;SDS011;10365;52.578;8.138;2023-04-29T00:12:42;67.18;;;33.75;;
20411;SDS011;10365;52.578;8.138;2023-04-29T00:15:08;65.43;;;34.58;;
20411;SDS011;10365;52.578;8.138;2023-04-29T00:17:34;68.25;;;33.55;;
20411;SDS011;10365;52.578;8.138;2023-04-29T00:19:59;64.53;;;34.53;;
20411;SDS011;10365;52.578;8.138;2023-04-29T00:22:24;65.80;;;34.47;;
20411;SDS011;10365;52.578;8.138;2023-04-29T00:24:50;66.90;;;33.83;;
20411;SDS011;10365;52.578;8.138;2023-04-29T00:27:15;69.60;;;34.75;;
20411;SDS011;10365;52.578;8.138;2023-04-29T00:29:42;69.95;;;34.83;;
20411;SDS011;10365;52.578;8.138;2023-04-29T00:32:07;69.43;;;35.03;;
20411;SDS011;10365;52.578;8.138;2023-04-29T00:34:33;71.38;;;35.35;;
20411;SDS011;10365;52.578;8.138;2023-04-29T00:36:58;66.53;;;35.25;;
20411;SDS011;10365;52.578;8.138;2023-04-29T00:39:24;70.18;;;33.90;;
20411;SDS011;10365;52.578;8.138;2023-04-29T00:41:49;68.25;;;33.15;;
20411;SDS011;10365;52.578;8.138;2023-04-29T00:44:15;67.05;;;33.35;;
20411;SDS011;10365;52.578;8.138;2023-04-29T00:46:41;70.82;;;35.47;;
20411;SDS011;10365;52.578;8.138;2023-04-29T00:49:06;66.65;;;34.55;;
20411;SDS011;10365;52.578;8.138;2023-04-29T00:51:32;60.65;;;33.03;;
20411;SDS011;10365;52.578;8.138;2023-04-29T00:53:58;70.32;;;33.45;;
20411;SDS011;10365;52.578;8.138;2023-04-29T00:56:24;71.15;;;33.65;;
20411;SDS011;10365;52.578;8.138;2023-04-29T00:58:49;78.85;;;36.47;;
20411;SDS011;10365;52.578;8.138;2023-04-29T01:01:17;73.47;;;36.83;;
20411;SDS011;10365;52.578;8.138;2023-04-29T01:03:43;72.68;;;35.30;;
20411;SDS011;10365;52.578;8.138;2023-04-29T01:06:17;72.60;;;35.25;;
20411;SDS011;10365;52.578;8.138;2023-04-29T01:09:22;71.32;;;36.05;;
20411;SDS011;10365;52.578;8.138;2023-04-29T01:11:39;69.28;;;36.90;;
20411;SDS011;10365;52.578;8.138;2023-04-29T01:14:06;70.05;;;34.83;;
20411;SDS011;10365;52.578;8.138;2023-04-29T01:21:48;74.05;;;36.42;;
20411;SDS011;10365;52.578;8.138;2023-04-29T01:24:14;76.15;;;36.95;;
20411;SDS011;10365;52.578;8.138;2023-04-29T01:26:42;70.72;;;36.67;;
20411;SDS011;10365;52.578;8.138;2023-04-29T01:29:40;76.13;;;38.90;;
20411;SDS011;10365;52.578;8.138;2023-04-29T01:32:12;67.93;;;36.17;;
20411;SDS011;10365;52.578;8.138;2023-04-29T01:39:55;66.22;;;37.05;;
20411;SDS011;10365;52.578;8.138;2023-04-29T01:42:32;67.35;;;35.67;;
20411;SDS011;10365;52.578;8.138;2023-04-29T01:45:04;67.82;;;36.75;;
20411;SDS011;10365;52.578;8.138;2023-04-29T01:47:30;74.28;;;36.78;;
20411;SDS011;10365;52.578;8.138;2023-04-29T01:49:57;75.00;;;38.45;;
20411;SDS011;10365;52.578;8.138;2023-04-29T01:52:22;76.05;;;39.35;;
20411;SDS011;10365;52.578;8.138;2023-04-29T01:54:54;79.93;;;39.63;;
20411;SDS011;10365;52.578;8.138;2023-04-29T01:57:19;80.28;;;40.55;;
20411;SDS011;10365;52.578;8.138;2023-04-29T01:59:59;78.20;;;40.47;;
20411;SDS011;10365;52.578;8.138;2023-04-29T02:02:29;88.75;;;41.58;;
20411;SDS011;10365;52.578;8.138;2023-04-29T02:05:02;81.25;;;41.13;;
20411;SDS011;10365;52.578;8.138;2023-04-29T02:07:28;76.90;;;39.67;;
20411;SDS011;10365;52.578;8.138;2023-04-29T02:09:55;92.00;;;43.15;;
20411;SDS011;10365;52.578;8.138;2023-04-29T02:12:21;90.15;;;43.38;;
20411;SDS011;10365;52.578;8.138;2023-04-29T02:14:47;88.43;;;42.60;;
20411;SDS011;10365;52.578;8.138;2023-04-29T02:17:16;93.70;;;45.55;;
20411;SDS011;10365;52.578;8.138;2023-04-29T02:19:42;94.05;;;45.15;;
20411;SDS011;10365;52.578;8.138;2023-04-29T02:22:08;99.00;;;48.88;;
20411;SDS011;10365;52.578;8.138;2023-04-29T02:24:39;98.35;;;48.10;;
20411;SDS011;10365;52.578;8.138;2023-04-29T02:27:05;101.13;;;48.78;;
20411;SDS011;10365;52.578;8.138;2023-04-29T02:29:31;101.10;;;49.00;;
20411;SDS011;10365;52.578;8.138;2023-04-29T02:31:57;98.28;;;50.67;;
20411;SDS011;10365;52.578;8.138;2023-04-29T02:34:23;105.63;;;48.47;;
20411;SDS011;10365;52.578;8.138;2023-04-29T02:36:48;109.97;;;49.00;;
20411;SDS011;10365;52.578;8.138;2023-04-29T02:39:14;114.70;;;49.95;;
20411;SDS011;10365;52.578;8.138;2023-04-29T02:41:39;108.93;;;48.60;;
20411;SDS011;10365;52.578;8.138;2023-04-29T02:44:06;112.13;;;50.88;;
20411;SDS011;10365;52.578;8.138;2023-04-29T02:46:31;116.90;;;51.78;;
20411;SDS011;10365;52.578;8.138;2023-04-29T02:48:59;119.85;;;51.13;;
20411;SDS011;10365;52.578;8.138;2023-04-29T02:51:25;120.57;;;51.13;;
20411;SDS011;10365;52.578;8.138;2023-04-29T02:53:50;120.07;;;52.33;;
20411;SDS011;10365;52.578;8.138;2023-04-29T02:56:16;118.25;;;53.70;;
20411;SDS011;10365;52.578;8.138;2023-04-29T02:58:41;124.18;;;53.72;;
20411;SDS011;10365;52.578;8.138;2023-04-29T03:01:07;116.00;;;52.85;;
20411;SDS011;10365;52.578;8.138;2023-04-29T03:03:33;136.10;;;55.85;;
20411;SDS011;10365;52.578;8.138;2023-04-29T03:05:58;123.65;;;56.40;;
20411;SDS011;10365;52.578;8.138;2023-04-29T03:08:23;125.05;;;54.10;;
20411;SDS011;10365;52.578;8.138;2023-04-29T03:10:49;135.23;;;57.42;;
20411;SDS011;10365;52.578;8.138;2023-04-29T03:13:14;127.00;;;55.33;;
20411;SDS011;10365;52.578;8.138;2023-04-29T03:15:40;133.60;;;56.85;;
20411;SDS011;10365;52.578;8.138;2023-04-29T03:18:06;134.07;;;57.80;;
20411;SDS011;10365;52.578;8.138;2023-04-29T03:20:32;130.38;;;57.47;;
20411;SDS011;10365;52.578;8.138;2023-04-29T03:23:00;135.35;;;58.35;;
20411;SDS011;10365;52.578;8.138;2023-04-29T03:25:26;134.60;;;56.78;;
20411;SDS011;10365;52.578;8.138;2023-04-29T03:27:52;136.10;;;57.25;;
20411;SDS011;10365;52.578;8.138;2023-04-29T03:30:18;130.40;;;55.70;;
20411;SDS011;10365;52.578;8.138;2023-04-29T03:32:48;135.82;;;57.08;;
20411;SDS011;10365;52.578;8.138;2023-04-29T03:35:13;139.45;;;57.65;;
20411;SDS011;10365;52.578;8.138;2023-04-29T03:37:44;140.18;;;57.55;;
20411;SDS011;10365;52.578;8.138;2023-04-29T03:40:19;142.73;;;59.78;;
20411;SDS011;10365;52.578;8.138;2023-04-29T03:42:45;141.25;;;58.42;;
20411;SDS011;10365;52.578;8.138;2023-04-29T03:45:11;148.73;;;59.22;;
20411;SDS011;10365;52.578;8.138;2023-04-29T03:47:39;145.20;;;57.65;;
20411;SDS011;10365;52.578;8.138;2023-04-29T03:50:05;146.38;;;59.10;;
20411;SDS011;10365;52.578;8.138;2023-04-29T03:52:31;152.32;;;60.15;;
20411;SDS011;10365;52.578;8.138;2023-04-29T03:55:01;157.75;;;59.70;;
20411;SDS011;10365;52.578;8.138;2023-04-29T03:57:27;153.27;;;59.50;;
20411;SDS011;10365;52.578;8.138;2023-04-29T03:59:53;161.80;;;61.08;;
20411;SDS011;10365;52.578;8.138;2023-04-29T04:02:19;150.57;;;60.47;;
20411;SDS011;10365;52.578;8.138;2023-04-29T04:04:45;159.05;;;60.63;;
20411;SDS011;10365;52.578;8.138;2023-04-29T04:07:11;156.85;;;59.72;;
20411;SDS011;10365;52.578;8.138;2023-04-29T04:09:56;158.75;;;59.25;;
20411;SDS011;10365;52.578;8.138;2023-04-29T04:12:22;170.75;;;61.95;;
20411;SDS011;10365;52.578;8.138;2023-04-29T04:14:47;166.52;;;61.38;;
20411;SDS011;10365;52.578;8.138;2023-04-29T04:17:13;167.25;;;60.95;;
20411;SDS011;10365;52.578;8.138;2023-04-29T04:19:39;157.88;;;60.88;;
20411;SDS011;10365;52.578;8.138;2023-04-29T04:22:04;152.32;;;61.83;;
20411;SDS011;10365;52.578;8.138;2023-04-29T04:24:30;152.63;;;60.03;;
20411;SDS011;10365;52.578;8.138;2023-04-29T04:26:55;165.65;;;62.30;;
20411;SDS011;10365;52.578;8.138;2023-04-29T04:29:32;158.02;;;59.17;;
20411;SDS011;10365;52.578;8.138;2023-04-29T04:32:02;149.25;;;60.47;;
20411;SDS011;10365;52.578;8.138;2023-04-29T04:34:29;145.77;;;59.88;;
20411;SDS011;10365;52.578;8.138;2023-04-29T04:36:56;152.60;;;58.90;;
20411;SDS011;10365;52.578;8.138;2023-04-29T04:39:22;153.15;;;61.47;;
20411;SDS011;10365;52.578;8.138;2023-04-29T04:41:48;155.55;;;60.50;;
20411;SDS011;10365;52.578;8.138;2023-04-29T04:44:13;147.43;;;60.20;;
20411;SDS011;10365;52.578;8.138;2023-04-29T04:46:49;147.27;;;58.28;;
20411;SDS011;10365;52.578;8.138;2023-04-29T04:49:26;142.75;;;57.53;;
20411;SDS011;10365;52.578;8.138;2023-04-29T04:51:52;145.43;;;58.33;;
20411;SDS011;10365;52.578;8.138;2023-04-29T04:54:17;141.90;;;58.63;;
20411;SDS011;10365;52.578;8.138;2023-04-29T04:56:43;133.00;;;55.80;;
20411;SDS011;10365;52.578;8.138;2023-04-29T04:59:08;134.15;;;56.63;;
20411;SDS011;10365;52.578;8.138;2023-04-29T05:01:35;128.10;;;56.35;;
20411;SDS011;10365;52.578;8.138;2023-04-29T05:04:01;132.90;;;55.72;;
20411;SDS011;10365;52.578;8.138;2023-04-29T05:06:28;124.88;;;55.33;;
20411;SDS011;10365;52.578;8.138;2023-04-29T05:08:54;122.07;;;54.72;;
20411;SDS011;10365;52.578;8.138;2023-04-29T05:11:20;130.40;;;54.10;;
20411;SDS011;10365;52.578;8.138;2023-04-29T05:14:03;127.30;;;55.35;;
20411;SDS011;10365;52.578;8.138;2023-04-29T05:16:29;120.57;;;53.97;;
20411;SDS011;10365;52.578;8.138;2023-04-29T05:18:55;126.57;;;55.70;;
20411;SDS011;10365;52.578;8.138;2023-04-29T05:21:24;114.35;;;53.45;;
20411;SDS011;10365;52.578;8.138;2023-04-29T05:23:50;105.88;;;49.65;;
20411;SDS011;10365;52.578;8.138;2023-04-29T05:26:15;109.82;;;50.80;;
20411;SDS011;10365;52.578;8.138;2023-04-29T05:28:41;107.32;;;51.67;;
20411;SDS011;10365;52.578;8.138;2023-04-29T05:31:07;105.18;;;50.00;;
20411;SDS011;10365;52.578;8.138;2023-04-29T05:33:34;97.95;;;47.50;;
20411;SDS011;10365;52.578;8.138;2023-04-29T05:35:59;101.15;;;48.92;;
20411;SDS011;10365;52.578;8.138;2023-04-29T05:38:25;111.40;;;50.72;;
20411;SDS011;10365;52.578;8.138;2023-04-29T05:41:01;101.43;;;49.00;;
20411;SDS011;10365;52.578;8.138;2023-04-29T05:43:46;103.32;;;47.40;;
20411;SDS011;10365;52.578;8.138;2023-04-29T05:46:13;99.85;;;48.20;;
20411;SDS011;10365;52.578;8.138;2023-04-29T05:48:38;95.47;;;47.35;;
20411;SDS011;10365;52.578;8.138;2023-04-29T05:51:04;99.05;;;48.20;;
20411;SDS011;10365;52.578;8.138;2023-04-29T05:53:31;90.57;;;46.83;;
20411;SDS011;10365;52.578;8.138;2023-04-29T05:55:57;97.63;;;46.75;;
20411;SDS011;10365;52.578;8.138;2023-04-29T05:58:23;91.28;;;44.22;;
20411;SDS011;10365;52.578;8.138;2023-04-29T06:00:49;87.13;;;44.83;;
20411;SDS011;10365;52.578;8.138;2023-04-29T06:03:20;83.97;;;43.95;;
20411;SDS011;10365;52.578;8.138;2023-04-29T06:05:48;78.03;;;43.17;;
20411;SDS011;10365;52.578;8.138;2023-04-29T06:08:49;73.32;;;40.97;;
20411;SDS011;10365;52.578;8.138;2023-04-29T06:11:20;90.97;;;42.13;;
20411;SDS011;10365;52.578;8.138;2023-04-29T06:13:45;78.55;;;42.60;;
20411;SDS011;10365;52.578;8.138;2023-04-29T06:16:13;79.50;;;42.58;;
20411;SDS011;10365;52.578;8.138;2023-04-29T06:18:39;78.43;;;40.92;;
20411;SDS011;10365;52.578;8.138;2023-04-29T06:21:04;82.30;;;41.50;;
20411;SDS011;10365;52.578;8.138;2023-04-29T06:23:30;82.32;;;41.72;;
20411;SDS011;10365;52.578;8.138;2023-04-29T06:25:58;87.72;;;42.33;;
20411;SDS011;10365;52.578;8.138;2023-04-29T06:28:24;78.43;;;40.60;;
20411;SDS011;10365;52.578;8.138;2023-04-29T06:30:49;74.57;;;38.70;;
20411;SDS011;10365;52.578;8.138;2023-04-29T06:33:15;73.47;;;40.10;;
20411;SDS011;10365;52.578;8.138;2023-04-29T06:35:40;67.22;;;37.50;;
20411;SDS011;10365;52.578;8.138;2023-04-29T06:38:08;66.75;;;36.85;;
20411;SDS011;10365;52.578;8.138;2023-04-29T06:40:36;65.32;;;34.75;;
20411;SDS011;10365;52.578;8.138;2023-04-29T06:43:02;63.80;;;34.45;;
20411;SDS011;10365;52.578;8.138;2023-04-29T06:45:46;58.35;;;34.70;;
20411;SDS011;10365;52.578;8.138;2023-04-29T06:48:20;59.85;;;33.15;;
20411;SDS011;10365;52.578;8.138;2023-04-29T06:50:50;59.25;;;33.95;;
20411;SDS011;10365;52.578;8.138;2023-04-29T06:53:16;56.65;;;32.75;;
20411;SDS011;10365;52.578;8.138;2023-04-29T06:55:42;55.58;;;32.55;;
20411;SDS011;10365;52.578;8.138;2023-04-29T06:58:07;57.88;;;31.17;;
20411;SDS011;10365;52.578;8.138;2023-04-29T07:00:32;54.45;;;31.17;;
20411;SDS011;10365;52.578;8.138;2023-04-29T07:02:58;51.50;;;30.65;;
20411;SDS011;10365;52.578;8.138;2023-04-29T07:05:23;52.40;;;30.60;;
20411;SDS011;10365;52.578;8.138;2023-04-29T07:07:49;51.42;;;30.77;;
20411;SDS011;10365;52.578;8.138;2023-04-29T07:10:16;51.35;;;29.23;;
20411;SDS011;10365;52.578;8.138;2023-04-29T07:12:42;47.50;;;28.38;;
20411;SDS011;10365;52.578;8.138;2023-04-29T07:15:07;47.38;;;28.50;;
20411;SDS011;10365;52.578;8.138;2023-04-29T07:17:33;44.55;;;27.50;;
20411;SDS011;10365;52.578;8.138;2023-04-29T07:19:58;48.08;;;27.80;;
20411;SDS011;10365;52.578;8.138;2023-04-29T07:22:24;49.05;;;27.15;;
20411;SDS011;10365;52.578;8.138;2023-04-29T07:24:52;40.35;;;25.70;;
20411;SDS011;10365;52.578;8.138;2023-04-29T07:27:17;39.20;;;23.85;;
20411;SDS011;10365;52.578;8.138;2023-04-29T07:29:42;37.33;;;24.02;;
20411;SDS011;10365;52.578;8.138;2023-04-29T07:32:08;44.33;;;26.05;;
20411;SDS011;10365;52.578;8.138;2023-04-29T07:34:35;42.90;;;25.33;;
20411;SDS011;10365;52.578;8.138;2023-04-29T07:37:01;40.35;;;25.17;;
20411;SDS011;10365;52.578;8.138;2023-04-29T07:39:26;36.47;;;23.25;;
20411;SDS011;10365;52.578;8.138;2023-04-29T07:41:55;42.53;;;23.70;;
20411;SDS011;10365;52.578;8.138;2023-04-29T07:44:21;43.90;;;24.02;;
20411;SDS011;10365;52.578;8.138;2023-04-29T07:46:49;36.88;;;22.27;;
20411;SDS011;10365;52.578;8.138;2023-04-29T07:49:15;33.75;;;22.38;;
20411;SDS011;10365;52.578;8.138;2023-04-29T07:51:41;35.92;;;21.73;;
20411;SDS011;10365;52.578;8.138;2023-04-29T07:54:09;32.83;;;20.50;;
20411;SDS011;10365;52.578;8.138;2023-04-29T07:56:35;30.23;;;21.05;;
20411;SDS011;10365;52.578;8.138;2023-04-29T07:59:00;35.17;;;21.45;;
20411;SDS011;10365;52.578;8.138;2023-04-29T08:01:26;35.50;;;21.77;;
20411;SDS011;10365;52.578;8.138;2023-04-29T08:03:53;33.42;;;21.50;;
20411;SDS011;10365;52.578;8.138;2023-04-29T08:06:19;30.20;;;20.52;;
20411;SDS011;10365;52.578;8.138;2023-04-29T08:08:46;30.35;;;20.38;;
20411;SDS011;10365;52.578;8.138;2023-04-29T08:11:18;31.15;;;19.75;;
20411;SDS011;10365;52.578;8.138;2023-04-29T08:13:44;30.30;;;19.20;;
20411;SDS011;10365;52.578;8.138;2023-04-29T08:16:10;29.75;;;19.33;;
20411;SDS011;10365;52.578;8.138;2023-04-29T08:18:36;30.08;;;18.88;;
20411;SDS011;10365;52.578;8.138;2023-04-29T08:21:01;28.55;;;19.52;;
20411;SDS011;10365;52.578;8.138;2023-04-29T08:23:28;29.58;;;18.65;;
20411;SDS011;10365;52.578;8.138;2023-04-29T08:25:53;30.63;;;19.08;;
20411;SDS011;10365;52.578;8.138;2023-04-29T08:28:23;30.65;;;17.88;;
20411;SDS011;10365;52.578;8.138;2023-04-29T08:30:48;25.42;;;18.38;;
20411;SDS011;10365;52.578;8.138;2023-04-29T08:33:14;37.60;;;19.48;;
20411;SDS011;10365;52.578;8.138;2023-04-29T08:35:40;29.52;;;17.88;;
20411;SDS011;10365;52.578;8.138;2023-04-29T08:38:06;26.13;;;16.75;;
20411;SDS011;10365;52.578;8.138;2023-04-29T08:40:35;23.15;;;16.85;;
20411;SDS011;10365;52.578;8.138;2023-04-29T08:43:01;25.80;;;16.70;;
20411;SDS011;10365;52.578;8.138;2023-04-29T08:45:27;25.05;;;16.02;;
20411;SDS011;10365;52.578;8.138;2023-04-29T08:47:52;22.85;;;15.15;;
20411;SDS011;10365;52.578;8.138;2023-04-29T08:50:24;26.42;;;15.27;;
20411;SDS011;10365;52.578;8.138;2023-04-29T08:52:52;26.67;;;16.50;;
20411;SDS011;10365;52.578;8.138;2023-04-29T08:55:32;23.60;;;16.38;;
20411;SDS011;10365;52.578;8.138;2023-04-29T08:58:02;23.17;;;15.10;;
20411;SDS011;10365;52.578;8.138;2023-04-29T09:00:30;24.30;;;14.88;;
20411;SDS011;10365;52.578;8.138;2023-04-29T09:02:59;20.33;;;14.70;;
20411;SDS011;10365;52.578;8.138;2023-04-29T09:05:25;23.67;;;14.70;;
20411;SDS011;10365;52.578;8.138;2023-04-29T09:07:55;26.27;;;14.52;;
20411;SDS011;10365;52.578;8.138;2023-04-29T09:10:24;19.02;;;12.80;;
20411;SDS011;10365;52.578;8.138;2023-04-29T09:12:56;22.05;;;14.70;;
20411;SDS011;10365;52.578;8.138;2023-04-29T09:15:37;21.17;;;14.55;;
20411;SDS011;10365;52.578;8.138;2023-04-29T09:18:04;22.17;;;14.57;;
20411;SDS011;10365;52.578;8.138;2023-04-29T09:20:30;22.02;;;14.02;;
20411;SDS011;10365;52.578;8.138;2023-04-29T09:22:56;17.27;;;13.05;;
20411;SDS011;10365;52.578;8.138;2023-04-29T09:25:22;19.65;;;13.10;;
20411;SDS011;10365;52.578;8.138;2023-04-29T09:27:47;21.38;;;13.73;;
20411;SDS011;10365;52.578;8.138;2023-04-29T09:30:13;21.58;;;13.27;;
20411;SDS011;10365;52.578;8.138;2023-04-29T09:32:40;17.23;;;12.43;;
20411;SDS011;10365;52.578;8.138;2023-04-29T09:35:25;22.67;;;12.75;;
20411;SDS011;10365;52.578;8.138;2023-04-29T09:37:51;20.17;;;12.25;;
20411;SDS011;10365;52.578;8.138;2023-04-29T09:40:27;18.55;;;11.50;;
20411;SDS011;10365;52.578;8.138;2023-04-29T09:42:54;19.23;;;11.75;;
20411;SDS011;10365;52.578;8.138;2023-04-29T09:45:53;17.80;;;12.35;;
20411;SDS011;10365;52.578;8.138;2023-04-29T09:48:12;20.40;;;11.98;;
20411;SDS011;10365;52.578;8.138;2023-04-29T09:50:37;19.13;;;11.52;;
20411;SDS011;10365;52.578;8.138;2023-04-29T09:53:07;13.52;;;10.15;;
20411;SDS011;10365;52.578;8.138;2023-04-29T09:55:37;15.23;;;10.60;;
20411;SDS011;10365;52.578;8.138;2023-04-29T09:58:31;21.52;;;11.57;;
20411;SDS011;10365;52.578;8.138;2023-04-29T10:01:01;16.23;;;11.35;;
20411;SDS011;10365;52.578;8.138;2023-04-29T10:03:30;16.42;;;11.13;;
20411;SDS011;10365;52.578;8.138;2023-04-29T10:05:57;14.52;;;10.25;;
20411;SDS011;10365;52.578;8.138;2023-04-29T10:08:22;19.45;;;11.80;;
20411;SDS011;10365;52.578;8.138;2023-04-29T10:10:48;16.05;;;11.70;;
20411;SDS011;10365;52.578;8.138;2023-04-29T10:13:22;17.60;;;12.13;;
20411;SDS011;10365;52.578;8.138;2023-04-29T10:15:51;18.17;;;10.90;;
20411;SDS011;10365;52.578;8.138;2023-04-29T10:18:20;18.30;;;11.82;;
20411;SDS011;10365;52.578;8.138;2023-04-29T10:20:46;15.45;;;11.25;;
20411;SDS011;10365;52.578;8.138;2023-04-29T10:23:12;17.10;;;10.98;;
20411;SDS011;10365;52.578;8.138;2023-04-29T10:25:38;18.40;;;11.20;;
20411;SDS011;10365;52.578;8.138;2023-04-29T10:28:04;18.60;;;11.45;;
20411;SDS011;10365;52.578;8.138;2023-04-29T10:30:30;17.00;;;10.57;;
20411;SDS011;10365;52.578;8.138;2023-04-29T10:32:55;16.38;;;10.55;;
20411;SDS011;10365;52.578;8.138;2023-04-29T10:35:23;13.45;;;10.70;;
20411;SDS011;10365;52.578;8.138;2023-04-29T10:37:49;16.05;;;10.52;;
20411;SDS011;10365;52.578;8.138;2023-04-29T10:40:22;16.48;;;10.85;;
20411;SDS011;10365;52.578;8.138;2023-04-29T10:42:49;19.90;;;11.02;;
20411;SDS011;10365;52.578;8.138;2023-04-29T10:51:12;16.38;;;10.30;;
20411;SDS011;10365;52.578;8.138;2023-04-29T10:53:16;15.13;;;9.38;;
20411;SDS011;10365;52.578;8.138;2023-04-29T10:55:46;13.82;;;10.00;;
20411;SDS011;10365;52.578;8.138;2023-04-29T11:00:57;16.98;;;9.65;;
20411;SDS011;10365;52.578;8.138;2023-04-29T11:06:07;12.40;;;9.80;;
20411;SDS011;10365;52.578;8.138;2023-04-29T11:08:35;14.82;;;9.85;;
20411;SDS011;10365;52.578;8.138;2023-04-29T11:11:04;20.77;;;12.00;;
20411;SDS011;10365;52.578;8.138;2023-04-29T11:13:31;13.40;;;9.93;;
20411;SDS011;10365;52.578;8.138;2023-04-29T11:16:04;16.85;;;10.43;;
20411;SDS011;10365;52.578;8.138;2023-04-29T11:18:30;16.58;;;10.27;;
20411;SDS011;10365;52.578;8.138;2023-04-29T11:23:30;13.23;;;9.88;;
20411;SDS011;10365;52.578;8.138;2023-04-29T11:25:57;13.27;;;8.90;;
20411;SDS011;10365;52.578;8.138;2023-04-29T11:28:23;18.58;;;11.10;;
20411;SDS011;10365;52.578;8.138;2023-04-29T11:30:51;12.85;;;7.90;;
20411;SDS011;10365;52.578;8.138;2023-04-29T11:33:18;14.43;;;8.23;;
20411;SDS011;10365;52.578;8.138;2023-04-29T11:35:43;15.50;;;9.05;;
20411;SDS011;10365;52.578;8.138;2023-04-29T11:38:10;13.38;;;9.05;;
20411;SDS011;10365;52.578;8.138;2023-04-29T11:40:35;12.50;;;8.20;;
20411;SDS011;10365;52.578;8.138;2023-04-29T11:43:05;14.68;;;8.52;;
20411;SDS011;10365;52.578;8.138;2023-04-29T11:45:33;11.57;;;7.07;;
20411;SDS011;10365;52.578;8.138;2023-04-29T11:47:59;11.52;;;7.85;;
20411;SDS011;10365;52.578;8.138;2023-04-29T11:50:25;13.40;;;7.45;;
20411;SDS011;10365;52.578;8.138;2023-04-29T11:52:51;18.05;;;7.80;;
20411;SDS011;10365;52.578;8.138;2023-04-29T11:55:17;11.27;;;8.20;;
20411;SDS011;10365;52.578;8.138;2023-04-29T11:57:42;13.20;;;8.55;;
20411;SDS011;10365;52.578;8.138;2023-04-29T12:00:09;11.90;;;7.13;;
20411;SDS011;10365;52.578;8.138;2023-04-29T12:02:36;13.05;;;8.18;;
20411;SDS011;10365;52.578;8.138;2023-04-29T12:05:06;10.35;;;6.80;;
20411;SDS011;10365;52.578;8.138;2023-04-29T12:07:37;11.32;;;7.03;;
20411;SDS011;10365;52.578;8.138;2023-04-29T12:10:02;9.77;;;6.82;;
20411;SDS011;10365;52.578;8.138;2023-04-29T12:12:31;9.45;;;6.35;;
20411;SDS011;10365;52.578;8.138;2023-04-29T12:15:01;9.60;;;7.07;;
20411;SDS011;10365;52.578;8.138;2023-04-29T12:17:27;11.00;;;7.47;;
20411;SDS011;10365;52.578;8.138;2023-04-29T12:19:53;10.93;;;6.07;;
20411;SDS011;10365;52.578;8.138;2023-04-29T12:22:18;9.60;;;5.65;;
20411;SDS011;10365;52.578;8.138;2023-04-29T12:24:44;9.23;;;5.97;;
20411;SDS011;10365;52.578;8.138;2023-04-29T12:27:09;13.35;;;6.55;;
20411;SDS011;10365;52.578;8.138;2023-04-29T12:29:35;8.27;;;6.07;;
20411;SDS011;10365;52.578;8.138;2023-04-29T12:32:01;9.57;;;5.65;;
20411;SDS011;10365;52.578;8.138;2023-04-29T12:34:27;7.95;;;6.10;;
20411;SDS011;10365;52.578;8.138;2023-04-29T12:36:58;10.60;;;6.13;;
20411;SDS011;10365;52.578;8.138;2023-04-29T12:39:24;13.45;;;6.65;;
20411;SDS011;10365;52.578;8.138;2023-04-29T12:41:53;10.70;;;6.45;;
20411;SDS011;10365;52.578;8.138;2023-04-29T12:44:19;11.30;;;6.32;;
20411;SDS011;10365;52.578;8.138;2023-04-29T12:46:44;12.73;;;7.38;;
20411;SDS011;10365;52.578;8.138;2023-04-29T12:49:09;12.45;;;7.47;;
20411;SDS011;10365;52.578;8.138;2023-04-29T12:51:35;9.95;;;7.45;;
20411;SDS011;10365;52.578;8.138;2023-04-29T12:54:01;13.13;;;7.45;;
20411;SDS011;10365;52.578;8.138;2023-04-29T12:56:27;12.35;;;7.68;;
20411;SDS011;10365;52.578;8.138;2023-04-29T12:58:53;13.27;;;8.43;;
20411;SDS011;10365;52.578;8.138;2023-04-29T13:01:19;11.45;;;7.03;;
20411;SDS011;10365;52.578;8.138;2023-04-29T13:03:44;10.25;;;6.05;;
20411;SDS011;10365;52.578;8.138;2023-04-29T13:06:10;10.60;;;6.25;;
20411;SDS011;10365;52.578;8.138;2023-04-29T13:08:35;16.02;;;8.25;;
20411;SDS011;10365;52.578;8.138;2023-04-29T13:11:01;11.85;;;7.32;;
20411;SDS011;10365;52.578;8.138;2023-04-29T13:13:27;10.45;;;7.13;;
20411;SDS011;10365;52.578;8.138;2023-04-29T13:15:52;9.85;;;6.15;;
20411;SDS011;10365;52.578;8.138;2023-04-29T13:18:18;9.10;;;6.03;;
20411;SDS011;10365;52.578;8.138;2023-04-29T13:20:43;9.35;;;6.38;;
20411;SDS011;10365;52.578;8.138;2023-04-29T13:23:09;8.00;;;5.38;;
20411;SDS011;10365;52.578;8.138;2023-04-29T13:25:34;7.78;;;5.30;;
20411;SDS011;10365;52.578;8.138;2023-04-29T13:28:00;10.68;;;5.95;;
20411;SDS011;10365;52.578;8.138;2023-04-29T13:30:25;8.80;;;5.40;;
20411;SDS011;10365;52.578;8.138;2023-04-29T13:32:51;8.60;;;5.65;;
20411;SDS011;10365;52.578;8.138;2023-04-29T13:35:16;7.45;;;5.90;;
20411;SDS011;10365;52.578;8.138;2023-04-29T13:37:42;8.63;;;5.70;;
20411;SDS011;10365;52.578;8.138;2023-04-29T13:40:07;8.85;;;5.03;;
20411;SDS011;10365;52.578;8.138;2023-04-29T13:42:33;6.28;;;4.50;;
20411;SDS011;10365;52.578;8.138;2023-04-29T13:44:58;7.63;;;4.85;;
20411;SDS011;10365;52.578;8.138;2023-04-29T13:47:24;9.00;;;5.30;;
20411;SDS011;10365;52.578;8.138;2023-04-29T13:49:49;9.73;;;5.03;;
20411;SDS011;10365;52.578;8.138;2023-04-29T13:52:14;7.32;;;4.65;;
20411;SDS011;10365;52.578;8.138;2023-04-29T13:54:40;6.68;;;4.90;;
20411;SDS011;10365;52.578;8.138;2023-04-29T13:57:05;8.23;;;5.28;;
20411;SDS011;10365;52.578;8.138;2023-04-29T13:59:31;8.05;;;5.18;;
20411;SDS011;10365;52.578;8.138;2023-04-29T14:01:57;9.05;;;5.53;;
20411;SDS011;10365;52.578;8.138;2023-04-29T14:04:26;6.85;;;4.88;;
20411;SDS011;10365;52.578;8.138;2023-04-29T14:06:52;7.97;;;4.82;;
20411;SDS011;10365;52.578;8.138;2023-04-29T14:09:18;10.73;;;5.75;;
20411;SDS011;10365;52.578;8.138;2023-04-29T14:11:44;10.40;;;5.30;;
20411;SDS011;10365;52.578;8.138;2023-04-29T14:14:10;8.38;;;5.15;;
20411;SDS011;10365;52.578;8.138;2023-04-29T14:16:35;6.88;;;4.80;;
20411;SDS011;10365;52.578;8.138;2023-04-29T14:19:01;7.45;;;4.70;;
20411;SDS011;10365;52.578;8.138;2023-04-29T14:21:26;7.07;;;4.40;;
20411;SDS011;10365;52.578;8.138;2023-04-29T14:23:52;7.28;;;4.75;;
20411;SDS011;10365;52.578;8.138;2023-04-29T14:26:18;8.43;;;5.15;;
20411;SDS011;10365;52.578;8.138;2023-04-29T14:28:43;6.07;;;4.15;;
20411;SDS011;10365;52.578;8.138;2023-04-29T14:31:09;6.68;;;5.07;;
20411;SDS011;10365;52.578;8.138;2023-04-29T14:33:35;10.25;;;5.18;;
20411;SDS011;10365;52.578;8.138;2023-04-29T14:36:00;10.23;;;4.70;;
20411;SDS011;10365;52.578;8.138;2023-04-29T14:38:26;7.07;;;4.85;;
20411;SDS011;10365;52.578;8.138;2023-04-29T14:40:51;8.98;;;5.38;;
20411;SDS011;10365;52.578;8.138;2023-04-29T14:43:17;7.75;;;4.93;;
20411;SDS011;10365;52.578;8.138;2023-04-29T14:45:42;8.48;;;4.88;;
20411;SDS011;10365;52.578;8.138;2023-04-29T14:48:09;7.40;;;4.63;;